Chartley, Massachusetts
Current Conditions -  °F | °C
As of 12:59 AM on Sunday 21 Dec 2014 (Local Time) from KTAN Reporting Station
Haze Haze  
Wind Chill: 35°   Ceiling: 400
Heat Index: 35°   Visibility: 5mi
Dew Point: 33°   Wind: 3mph
Humidity: 92%   Direction: 10°N
Pressure: 30.26"   Gusts: NA
Location:  41.95°N, 71.23°W
Report Text: KTAN 210559Z AUTO 01003KT 5SM BR BKN004 BKN009 OVC013 02/01 A3026 RMK AO2 UPE58 P0000 T00170006
Loading
Personal Weather Stations






























Interactive Weather Map New forecast layout! Learn more

10-Day Weather Forecast

Advertisements
Track Severe Weather on mobile